sensor_id;sensor_type;location;lat;lon;timestamp;pressure;altitude;pressure_sealevel;temperature;humidity
47104;BME280;32853;52.164;5.400;2023-04-30T00:00:57;102321.03;;;12.03;100.00
47104;BME280;32853;52.164;5.400;2023-04-30T00:03:34;102284.84;;;11.80;100.00
47104;BME280;32853;52.164;5.400;2023-04-30T00:05:59;102319.38;;;11.99;100.00
47104;BME280;32853;52.164;5.400;2023-04-30T00:08:25;102325.53;;;11.96;100.00
47104;BME280;32853;52.164;5.400;2023-04-30T00:10:51;102317.88;;;11.88;100.00
47104;BME280;32853;52.164;5.400;2023-04-30T00:13:16;102315.28;;;11.87;100.00
47104;BME280;32853;52.164;5.400;2023-04-30T00:15:42;102319.81;;;11.77;100.00
47104;BME280;32853;52.164;5.400;2023-04-30T00:18:08;102332.88;;;11.80;100.00
47104;BME280;32853;52.164;5.400;2023-04-30T00:20:35;102243.94;;;11.29;100.00
47104;BME280;32853;52.164;5.400;2023-04-30T00:23:00;102315.72;;;11.64;100.00
47104;BME280;32853;52.164;5.400;2023-04-30T00:25:28;102292.34;;;11.55;100.00
47104;BME280;32853;52.164;5.400;2023-04-30T00:28:03;102282.97;;;11.43;100.00
47104;BME280;32853;52.164;5.400;2023-04-30T00:30:33;102327.06;;;11.63;100.00
47104;BME280;32853;52.164;5.400;2023-04-30T00:33:01;102072.53;;;10.16;100.00
47104;BME280;32853;52.164;5.400;2023-04-30T00:35:27;102149.13;;;10.70;100.00
47104;BME280;32853;52.164;5.400;2023-04-30T00:37:52;102252.00;;;11.20;100.00
47104;BME280;32853;52.164;5.400;2023-04-30T00:40:19;102201.09;;;10.90;100.00
47104;BME280;32853;52.164;5.400;2023-04-30T00:42:46;102300.38;;;11.46;100.00
47104;BME280;32853;52.164;5.400;2023-04-30T00:45:15;102335.19;;;11.51;100.00
47104;BME280;32853;52.164;5.400;2023-04-30T00:47:48;102259.09;;;11.14;100.00
47104;BME280;32853;52.164;5.400;2023-04-30T00:50:15;102343.91;;;11.51;100.00
47104;BME280;32853;52.164;5.400;2023-04-30T00:52:42;102287.09;;;11.10;100.00
47104;BME280;32853;52.164;5.400;2023-04-30T00:55:16;102323.88;;;11.49;100.00
47104;BME280;32853;52.164;5.400;2023-04-30T00:57:41;102336.97;;;11.49;100.00
47104;BME280;32853;52.164;5.400;2023-04-30T01:00:12;102338.63;;;11.54;100.00
47104;BME280;32853;52.164;5.400;2023-04-30T01:02:42;102269.09;;;10.93;100.00
47104;BME280;32853;52.164;5.400;2023-04-30T01:05:08;102339.97;;;11.29;100.00
47104;BME280;32853;52.164;5.400;2023-04-30T01:07:34;102339.19;;;11.25;100.00
47104;BME280;32853;52.164;5.400;2023-04-30T01:10:08;102289.97;;;10.98;100.00
47104;BME280;32853;52.164;5.400;2023-04-30T01:12:45;102339.00;;;11.34;100.00
47104;BME280;32853;52.164;5.400;2023-04-30T01:15:19;102344.19;;;11.38;100.00
47104;BME280;32853;52.164;5.400;2023-04-30T01:18:48;102351.00;;;11.46;100.00
47104;BME280;32853;52.164;5.400;2023-04-30T01:20:58;102344.13;;;11.41;100.00
47104;BME280;32853;52.164;5.400;2023-04-30T01:23:46;102350.97;;;11.48;100.00
47104;BME280;32853;52.164;5.400;2023-04-30T01:29:09;102353.69;;;11.43;100.00
47104;BME280;32853;52.164;5.400;2023-04-30T01:31:38;102335.63;;;11.28;100.00
47104;BME280;32853;52.164;5.400;2023-04-30T01:34:03;102350.31;;;11.37;100.00
47104;BME280;32853;52.164;5.400;2023-04-30T01:39:36;102345.38;;;11.21;100.00
47104;BME280;32853;52.164;5.400;2023-04-30T01:42:12;102336.94;;;11.05;100.00
47104;BME280;32853;52.164;5.400;2023-04-30T01:48:13;102330.03;;;11.01;100.00
47104;BME280;32853;52.164;5.400;2023-04-30T01:51:07;102355.00;;;11.21;100.00
47104;BME280;32853;52.164;5.400;2023-04-30T01:53:40;102345.44;;;11.17;100.00
47104;BME280;32853;52.164;5.400;2023-04-30T01:56:43;102350.88;;;11.06;100.00
47104;BME280;32853;52.164;5.400;2023-04-30T01:59:11;102365.84;;;10.99;100.00
47104;BME280;32853;52.164;5.400;2023-04-30T02:01:38;102349.16;;;11.05;100.00
47104;BME280;32853;52.164;5.400;2023-04-30T02:04:04;102349.31;;;10.97;100.00
47104;BME280;32853;52.164;5.400;2023-04-30T02:06:29;102358.81;;;11.01;100.00
47104;BME280;32853;52.164;5.400;2023-04-30T02:08:56;102357.03;;;11.03;100.00
47104;BME280;32853;52.164;5.400;2023-04-30T02:11:33;102302.75;;;10.65;100.00
47104;BME280;32853;52.164;5.400;2023-04-30T02:14:01;102350.19;;;10.95;100.00
47104;BME280;32853;52.164;5.400;2023-04-30T02:16:27;102360.44;;;11.07;100.00
47104;BME280;32853;52.164;5.400;2023-04-30T02:18:52;102345.03;;;10.92;100.00
47104;BME280;32853;52.164;5.400;2023-04-30T02:21:20;102349.31;;;10.97;100.00
47104;BME280;32853;52.164;5.400;2023-04-30T02:23:45;102356.22;;;11.00;100.00
47104;BME280;32853;52.164;5.400;2023-04-30T02:26:10;102356.31;;;10.94;100.00
47104;BME280;32853;52.164;5.400;2023-04-30T02:28:36;102344.19;;;10.90;100.00
47104;BME280;32853;52.164;5.400;2023-04-30T02:31:09;102302.50;;;10.79;100.00
47104;BME280;32853;52.164;5.400;2023-04-30T02:33:35;102347.56;;;10.98;100.00
47104;BME280;32853;52.164;5.400;2023-04-30T02:36:00;102349.28;;;10.99;100.00
47104;BME280;32853;52.164;5.400;2023-04-30T02:38:28;102345.84;;;10.94;100.00
47104;BME280;32853;52.164;5.400;2023-04-30T02:41:06;102337.25;;;10.87;100.00
47104;BME280;32853;52.164;5.400;2023-04-30T02:43:34;102325.19;;;10.79;100.00
47104;BME280;32853;52.164;5.400;2023-04-30T02:46:00;102312.44;;;10.59;100.00
47104;BME280;32853;52.164;5.400;2023-04-30T02:48:32;102257.03;;;10.34;100.00
47104;BME280;32853;52.164;5.400;2023-04-30T02:51:04;102233.84;;;10.11;100.00
47104;BME280;32853;52.164;5.400;2023-04-30T02:53:43;102326.44;;;10.56;100.00
47104;BME280;32853;52.164;5.400;2023-04-30T02:56:09;102340.25;;;10.63;100.00
47104;BME280;32853;52.164;5.400;2023-04-30T02:58:34;102339.28;;;10.70;100.00
47104;BME280;32853;52.164;5.400;2023-04-30T03:01:06;102337.81;;;10.54;100.00
47104;BME280;32853;52.164;5.400;2023-04-30T03:03:49;102337.53;;;10.70;100.00
47104;BME280;32853;52.164;5.400;2023-04-30T03:06:20;102280.41;;;10.44;100.00
47104;BME280;32853;52.164;5.400;2023-04-30T03:08:50;102336.59;;;10.76;100.00
47104;BME280;32853;52.164;5.400;2023-04-30T03:11:16;102307.63;;;10.33;100.00
47104;BME280;32853;52.164;5.400;2023-04-30T03:13:42;102337.03;;;10.47;100.00
47104;BME280;32853;52.164;5.400;2023-04-30T03:16:08;102340.44;;;10.52;100.00
47104;BME280;32853;52.164;5.400;2023-04-30T03:18:38;102331.72;;;10.52;100.00
47104;BME280;32853;52.164;5.400;2023-04-30T03:21:03;102306.00;;;10.24;100.00
47104;BME280;32853;52.164;5.400;2023-04-30T03:23:29;102341.47;;;10.40;100.00
47104;BME280;32853;52.164;5.400;2023-04-30T03:25:54;102338.88;;;10.42;100.00
47104;BME280;32853;52.164;5.400;2023-04-30T03:28:20;102342.28;;;10.47;100.00
47104;BME280;32853;52.164;5.400;2023-04-30T03:30:45;102328.31;;;10.46;100.00
47104;BME280;32853;52.164;5.400;2023-04-30T03:33:10;102312.00;;;10.31;100.00
47104;BME280;32853;52.164;5.400;2023-04-30T03:35:36;102332.66;;;10.47;100.00
47104;BME280;32853;52.164;5.400;2023-04-30T03:38:01;102319.72;;;10.38;100.00
47104;BME280;32853;52.164;5.400;2023-04-30T03:40:31;102323.97;;;10.47;100.00
47104;BME280;32853;52.164;5.400;2023-04-30T03:42:57;102312.94;;;10.27;100.00
47104;BME280;32853;52.164;5.400;2023-04-30T03:45:23;102333.69;;;10.37;100.00
47104;BME280;32853;52.164;5.400;2023-04-30T03:47:54;102340.72;;;10.34;100.00
47104;BME280;32853;52.164;5.400;2023-04-30T03:50:19;102323.41;;;10.25;100.00
47104;BME280;32853;52.164;5.400;2023-04-30T03:52:45;102318.34;;;10.13;100.00
47104;BME280;32853;52.164;5.400;2023-04-30T03:55:10;102289.81;;;9.96;100.00
47104;BME280;32853;52.164;5.400;2023-04-30T03:57:38;102320.94;;;10.13;100.00
47104;BME280;32853;52.164;5.400;2023-04-30T04:00:05;102296.75;;;9.97;100.00
47104;BME280;32853;52.164;5.400;2023-04-30T04:02:34;102299.34;;;10.02;100.00
47104;BME280;32853;52.164;5.400;2023-04-30T04:05:00;102323.47;;;10.19;100.00
47104;BME280;32853;52.164;5.400;2023-04-30T04:07:26;102334.03;;;10.13;100.00
47104;BME280;32853;52.164;5.400;2023-04-30T04:09:51;102202.69;;;9.37;100.00
47104;BME280;32853;52.164;5.400;2023-04-30T04:12:16;102321.78;;;10.15;100.00
47104;BME280;32853;52.164;5.400;2023-04-30T04:14:41;102321.91;;;10.06;100.00
47104;BME280;32853;52.164;5.400;2023-04-30T04:17:07;102254.38;;;9.75;100.00
47104;BME280;32853;52.164;5.400;2023-04-30T04:19:32;102286.19;;;10.06;100.00
47104;BME280;32853;52.164;5.400;2023-04-30T04:22:00;102283.69;;;10.00;100.00
47104;BME280;32853;52.164;5.400;2023-04-30T04:24:31;102324.31;;;10.21;100.00
47104;BME280;32853;52.164;5.400;2023-04-30T04:26:58;102317.47;;;10.12;100.00
47104;BME280;32853;52.164;5.400;2023-04-30T04:29:35;102259.53;;;9.81;100.00
47104;BME280;32853;52.164;5.400;2023-04-30T04:32:01;102258.66;;;9.82;100.00
47104;BME280;32853;52.164;5.400;2023-04-30T04:34:28;102278.47;;;9.97;100.00
47104;BME280;32853;52.164;5.400;2023-04-30T04:36:53;102323.47;;;10.22;100.00
47104;BME280;32853;52.164;5.400;2023-04-30T04:39:19;102265.59;;;9.83;100.00
47104;BME280;32853;52.164;5.400;2023-04-30T04:41:44;102312.38;;;10.03;100.00
47104;BME280;32853;52.164;5.400;2023-04-30T04:44:11;102310.44;;;10.16;100.00
47104;BME280;32853;52.164;5.400;2023-04-30T04:46:37;102286.47;;;9.88;100.00
47104;BME280;32853;52.164;5.400;2023-04-30T04:49:02;102333.97;;;10.16;100.00
47104;BME280;32853;52.164;5.400;2023-04-30T04:51:33;102281.31;;;9.82;100.00
47104;BME280;32853;52.164;5.400;2023-04-30T04:54:10;102281.22;;;9.89;100.00
47104;BME280;32853;52.164;5.400;2023-04-30T04:56:39;102332.50;;;9.98;100.00
47104;BME280;32853;52.164;5.400;2023-04-30T04:59:12;102334.28;;;9.93;100.00
47104;BME280;32853;52.164;5.400;2023-04-30T05:01:38;102334.25;;;9.95;100.00
47104;BME280;32853;52.164;5.400;2023-04-30T05:04:07;102331.59;;;9.99;100.00
47104;BME280;32853;52.164;5.400;2023-04-30T05:06:35;102244.22;;;9.57;100.00
47104;BME280;32853;52.164;5.400;2023-04-30T05:09:01;102270.38;;;9.52;100.00
47104;BME280;32853;52.164;5.400;2023-04-30T05:11:27;102271.44;;;9.36;100.00
47104;BME280;32853;52.164;5.400;2023-04-30T05:13:52;102329.22;;;9.81;100.00
47104;BME280;32853;52.164;5.400;2023-04-30T05:16:20;102306.06;;;9.52;100.00
47104;BME280;32853;52.164;5.400;2023-04-30T05:18:45;102344.94;;;9.79;100.00
47104;BME280;32853;52.164;5.400;2023-04-30T05:21:12;102282.53;;;9.55;100.00
47104;BME280;32853;52.164;5.400;2023-04-30T05:23:37;102309.28;;;9.74;100.00
47104;BME280;32853;52.164;5.400;2023-04-30T05:26:02;102302.41;;;9.67;100.00
47104;BME280;32853;52.164;5.400;2023-04-30T05:28:28;102301.56;;;9.63;100.00
47104;BME280;32853;52.164;5.400;2023-04-30T05:30:54;102344.16;;;9.71;100.00
47104;BME280;32853;52.164;5.400;2023-04-30T05:33:19;102341.50;;;9.74;100.00
47104;BME280;32853;52.164;5.400;2023-04-30T05:35:44;102325.94;;;9.67;100.00
47104;BME280;32853;52.164;5.400;2023-04-30T05:38:10;102343.06;;;9.89;100.00
47104;BME280;32853;52.164;5.400;2023-04-30T05:40:35;102339.63;;;9.87;100.00
47104;BME280;32853;52.164;5.400;2023-04-30T05:43:00;102361.25;;;9.98;100.00
47104;BME280;32853;52.164;5.400;2023-04-30T05:45:26;102338.59;;;9.96;100.00
47104;BME280;32853;52.164;5.400;2023-04-30T05:47:51;102354.06;;;10.14;100.00
47104;BME280;32853;52.164;5.400;2023-04-30T05:50:23;102348.06;;;10.04;100.00
47104;BME280;32853;52.164;5.400;2023-04-30T05:52:49;102366.16;;;10.19;100.00
47104;BME280;32853;52.164;5.400;2023-04-30T05:55:15;102363.63;;;10.15;100.00
47104;BME280;32853;52.164;5.400;2023-04-30T05:57:40;102360.06;;;10.19;100.00
47104;BME280;32853;52.164;5.400;2023-04-30T06:00:06;102372.16;;;10.29;100.00
47104;BME280;32853;52.164;5.400;2023-04-30T06:02:31;102357.47;;;10.17;100.00
47104;BME280;32853;52.164;5.400;2023-04-30T06:04:57;102360.88;;;10.26;100.00
47104;BME280;32853;52.164;5.400;2023-04-30T06:07:25;102378.31;;;10.25;100.00
47104;BME280;32853;52.164;5.400;2023-04-30T06:10:14;102374.50;;;10.49;100.00
47104;BME280;32853;52.164;5.400;2023-04-30T06:12:41;102362.53;;;10.33;100.00
47104;BME280;32853;52.164;5.400;2023-04-30T06:15:07;102377.09;;;10.49;100.00
47104;BME280;32853;52.164;5.400;2023-04-30T06:17:32;102337.38;;;10.24;100.00
47104;BME280;32853;52.164;5.400;2023-04-30T06:19:57;102326.09;;;10.22;100.00
47104;BME280;32853;52.164;5.400;2023-04-30T06:22:26;102306.00;;;10.24;100.00
47104;BME280;32853;52.164;5.400;2023-04-30T06:24:51;102389.09;;;10.62;100.00
47104;BME280;32853;52.164;5.400;2023-04-30T06:27:17;102377.00;;;10.57;100.00
47104;BME280;32853;52.164;5.400;2023-04-30T06:29:46;102389.06;;;10.64;100.00
47104;BME280;32853;52.164;5.400;2023-04-30T06:32:15;102381.09;;;10.73;100.00
47104;BME280;32853;52.164;5.400;2023-04-30T06:34:40;102337.00;;;10.48;100.00
47104;BME280;32853;52.164;5.400;2023-04-30T06:37:07;102359.56;;;10.57;100.00
47104;BME280;32853;52.164;5.400;2023-04-30T06:39:32;102379.34;;;10.73;100.00
47104;BME280;32853;52.164;5.400;2023-04-30T06:41:58;102390.28;;;10.97;100.00
47104;BME280;32853;52.164;5.400;2023-04-30T06:44:23;102370.25;;;10.97;100.00
47104;BME280;32853;52.164;5.400;2023-04-30T06:46:48;102370.56;;;11.27;100.00
47104;BME280;32853;52.164;5.400;2023-04-30T06:49:14;102379.06;;;11.40;100.00
47104;BME280;32853;52.164;5.400;2023-04-30T06:51:40;102381.47;;;11.53;100.00
47104;BME280;32853;52.164;5.400;2023-04-30T06:54:05;102388.72;;;11.38;100.00
47104;BME280;32853;52.164;5.400;2023-04-30T06:56:36;102371.81;;;11.55;100.00
47104;BME280;32853;52.164;5.400;2023-04-30T06:59:01;102364.88;;;11.53;100.00
47104;BME280;32853;52.164;5.400;2023-04-30T07:01:26;102366.88;;;11.83;100.00
47104;BME280;32853;52.164;5.400;2023-04-30T07:03:52;102388.47;;;11.98;100.00
47104;BME280;32853;52.164;5.400;2023-04-30T07:06:21;102391.38;;;11.82;100.00
47104;BME280;32853;52.164;5.400;2023-04-30T07:08:48;102387.34;;;12.09;100.00
47104;BME280;32853;52.164;5.400;2023-04-30T07:11:13;102340.34;;;12.00;100.00
47104;BME280;32853;52.164;5.400;2023-04-30T07:13:38;102385.56;;;12.48;100.00
47104;BME280;32853;52.164;5.400;2023-04-30T07:16:11;102385.97;;;12.69;100.00
47104;BME280;32853;52.164;5.400;2023-04-30T07:18:50;102390.41;;;12.67;100.00
47104;BME280;32853;52.164;5.400;2023-04-30T07:21:17;102387.94;;;12.59;100.00
47104;BME280;32853;52.164;5.400;2023-04-30T07:23:49;102360.72;;;12.26;100.00
47104;BME280;32853;52.164;5.400;2023-04-30T07:26:15;102399.13;;;12.67;100.00
47104;BME280;32853;52.164;5.400;2023-04-30T07:29:07;102399.56;;;12.86;100.00
47104;BME280;32853;52.164;5.400;2023-04-30T07:31:38;102398.81;;;13.15;100.00
47104;BME280;32853;52.164;5.400;2023-04-30T07:34:04;102363.00;;;13.13;100.00
47104;BME280;32853;52.164;5.400;2023-04-30T07:36:30;102302.19;;;12.94;100.00
47104;BME280;32853;52.164;5.400;2023-04-30T07:39:13;102418.03;;;13.51;100.00
47104;BME280;32853;52.164;5.400;2023-04-30T07:41:45;102225.03;;;12.33;100.00
47104;BME280;32853;52.164;5.400;2023-04-30T07:44:10;102387.41;;;13.16;100.00
47104;BME280;32853;52.164;5.400;2023-04-30T07:46:36;102366.97;;;13.29;100.00
47104;BME280;32853;52.164;5.400;2023-04-30T07:49:03;102359.25;;;13.23;100.00
47104;BME280;32853;52.164;5.400;2023-04-30T07:51:28;102331.16;;;13.25;100.00
47104;BME280;32853;52.164;5.400;2023-04-30T07:53:55;102366.44;;;13.15;100.00
47104;BME280;32853;52.164;5.400;2023-04-30T07:56:20;102395.34;;;13.15;100.00
47104;BME280;32853;52.164;5.400;2023-04-30T07:58:46;102346.59;;;13.37;100.00
47104;BME280;32853;52.164;5.400;2023-04-30T08:01:11;102311.47;;;13.40;100.00
47104;BME280;32853;52.164;5.400;2023-04-30T08:03:36;102382.59;;;13.97;100.00
47104;BME280;32853;52.164;5.400;2023-04-30T08:06:02;102362.69;;;14.16;100.00
47104;BME280;32853;52.164;5.400;2023-04-30T08:08:27;102376.09;;;14.37;100.00
47104;BME280;32853;52.164;5.400;2023-04-30T08:10:53;102373.28;;;14.43;100.00
47104;BME280;32853;52.164;5.400;2023-04-30T08:13:20;102371.66;;;14.39;100.00
47104;BME280;32853;52.164;5.400;2023-04-30T08:15:51;102375.81;;;14.47;100.00
47104;BME280;32853;52.164;5.400;2023-04-30T08:18:25;102375.69;;;14.50;100.00
47104;BME280;32853;52.164;5.400;2023-04-30T08:20:51;102382.75;;;14.50;100.00
47104;BME280;32853;52.164;5.400;2023-04-30T08:23:18;102356.66;;;14.41;98.42
47104;BME280;32853;52.164;5.400;2023-04-30T08:25:45;102342.44;;;14.48;100.00
47104;BME280;32853;52.164;5.400;2023-04-30T08:28:10;102384.72;;;14.98;100.00
47104;BME280;32853;52.164;5.400;2023-04-30T08:30:41;102396.34;;;14.64;99.12
47104;BME280;32853;52.164;5.400;2023-04-30T08:33:08;102392.88;;;14.62;97.96
47104;BME280;32853;52.164;5.400;2023-04-30T08:35:35;102381.88;;;14.77;99.71
47104;BME280;32853;52.164;5.400;2023-04-30T08:38:02;102376.56;;;15.04;94.89
47104;BME280;32853;52.164;5.400;2023-04-30T08:40:34;102376.22;;;15.39;94.83
47104;BME280;32853;52.164;5.400;2023-04-30T08:43:05;102360.44;;;15.38;94.14
47104;BME280;32853;52.164;5.400;2023-04-30T08:45:34;102282.75;;;15.00;91.90
47104;BME280;32853;52.164;5.400;2023-04-30T08:48:02;102332.97;;;14.95;89.60
47104;BME280;32853;52.164;5.400;2023-04-30T08:50:30;102321.78;;;15.14;92.64
47104;BME280;32853;52.164;5.400;2023-04-30T08:53:03;102383.47;;;15.83;93.47
47104;BME280;32853;52.164;5.400;2023-04-30T08:58:21;102291.19;;;15.58;84.91
47104;BME280;32853;52.164;5.400;2023-04-30T09:00:47;102286.16;;;15.75;81.21
47104;BME280;32853;52.164;5.400;2023-04-30T09:03:19;102323.81;;;16.02;83.42
47104;BME280;32853;52.164;5.400;2023-04-30T09:05:47;102377.63;;;16.65;81.98
47104;BME280;32853;52.164;5.400;2023-04-30T09:08:16;102296.50;;;16.25;81.61
47104;BME280;32853;52.164;5.400;2023-04-30T09:10:42;102353.28;;;16.79;78.93
47104;BME280;32853;52.164;5.400;2023-04-30T09:13:08;102364.34;;;16.89;72.87
47104;BME280;32853;52.164;5.400;2023-04-30T09:15:37;102327.59;;;16.61;73.08
47104;BME280;32853;52.164;5.400;2023-04-30T09:18:16;102382.03;;;16.65;71.82
47104;BME280;32853;52.164;5.400;2023-04-30T09:21:05;102371.00;;;16.77;70.74
47104;BME280;32853;52.164;5.400;2023-04-30T09:24:01;102373.06;;;16.47;68.42
47104;BME280;32853;52.164;5.400;2023-04-30T09:26:35;102365.56;;;16.36;68.11
47104;BME280;32853;52.164;5.400;2023-04-30T09:29:07;102358.97;;;16.70;67.63
47104;BME280;32853;52.164;5.400;2023-04-30T09:31:34;102365.78;;;16.75;64.53
47104;BME280;32853;52.164;5.400;2023-04-30T09:34:00;102365.78;;;16.96;65.55
47104;BME280;32853;52.164;5.400;2023-04-30T09:36:25;102348.22;;;16.95;66.72
47104;BME280;32853;52.164;5.400;2023-04-30T09:38:52;102361.44;;;17.35;66.06
47104;BME280;32853;52.164;5.400;2023-04-30T09:41:25;102347.13;;;17.39;64.97
47104;BME280;32853;52.164;5.400;2023-04-30T09:43:57;102363.50;;;17.68;64.99
47104;BME280;32853;52.164;5.400;2023-04-30T09:46:35;102335.25;;;17.68;62.71
47104;BME280;32853;52.164;5.400;2023-04-30T09:49:04;102298.63;;;17.59;62.53
47104;BME280;32853;52.164;5.400;2023-04-30T09:51:53;102263.59;;;17.35;59.76
47104;BME280;32853;52.164;5.400;2023-04-30T09:54:28;102359.97;;;17.69;62.16
47104;BME280;32853;52.164;5.400;2023-04-30T09:56:57;102261.13;;;17.12;61.77
47104;BME280;32853;52.164;5.400;2023-04-30T09:59:33;102361.34;;;17.78;62.26
47104;BME280;32853;52.164;5.400;2023-04-30T10:02:15;102349.75;;;17.99;60.46
47104;BME280;32853;52.164;5.400;2023-04-30T10:04:48;102285.44;;;17.97;60.07
47104;BME280;32853;52.164;5.400;2023-04-30T10:07:19;102178.63;;;17.43;60.06
47104;BME280;32853;52.164;5.400;2023-04-30T10:09:50;102349.34;;;18.62;59.24
47104;BME280;32853;52.164;5.400;2023-04-30T10:12:22;102334.56;;;18.21;59.37
47104;BME280;32853;52.164;5.400;2023-04-30T10:15:12;102330.34;;;18.17;60.54
47104;BME280;32853;52.164;5.400;2023-04-30T10:17:40;102320.97;;;18.46;60.22
47104;BME280;32853;52.164;5.400;2023-04-30T10:20:08;102325.91;;;18.18;59.02
47104;BME280;32853;52.164;5.400;2023-04-30T10:22:38;102290.25;;;17.89;60.07
47104;BME280;32853;52.164;5.400;2023-04-30T10:25:08;102293.16;;;18.38;60.28
47104;BME280;32853;52.164;5.400;2023-04-30T10:27:38;102324.72;;;18.78;59.56
47104;BME280;32853;52.164;5.400;2023-04-30T10:30:07;102330.25;;;18.74;58.51
47104;BME280;32853;52.164;5.400;2023-04-30T10:32:40;102229.97;;;17.94;58.25
47104;BME280;32853;52.164;5.400;2023-04-30T10:35:17;102276.81;;;18.47;56.37
47104;BME280;32853;52.164;5.400;2023-04-30T10:37:47;102316.25;;;19.22;58.01
47104;BME280;32853;52.164;5.400;2023-04-30T10:40:15;102279.88;;;18.91;57.20
47104;BME280;32853;52.164;5.400;2023-04-30T10:42:47;102334.19;;;19.17;56.57
47104;BME280;32853;52.164;5.400;2023-04-30T10:45:15;102318.38;;;19.49;56.16
47104;BME280;32853;52.164;5.400;2023-04-30T10:47:41;102320.75;;;19.37;56.31
47104;BME280;32853;52.164;5.400;2023-04-30T10:50:07;102315.97;;;19.77;56.54
47104;BME280;32853;52.164;5.400;2023-04-30T10:52:44;102276.22;;;19.60;56.18
47104;BME280;32853;52.164;5.400;2023-04-30T10:55:16;102308.59;;;19.33;56.18
47104;BME280;32853;52.164;5.400;2023-04-30T10:57:43;102297.88;;;19.68;55.80
47104;BME280;32853;52.164;5.400;2023-04-30T11:00:18;102298.41;;;19.90;54.82
47104;BME280;32853;52.164;5.400;2023-04-30T11:02:45;102276.53;;;19.54;56.59
47104;BME280;32853;52.164;5.400;2023-04-30T11:05:13;102297.31;;;19.63;55.03
47104;BME280;32853;52.164;5.400;2023-04-30T11:07:50;102281.88;;;19.69;55.45
47104;BME280;32853;52.164;5.400;2023-04-30T11:10:18;102282.75;;;20.01;55.61
47104;BME280;32853;52.164;5.400;2023-04-30T11:12:58;102276.34;;;20.36;54.17
47104;BME280;32853;52.164;5.400;2023-04-30T11:15:33;102253.81;;;20.27;54.01
47104;BME280;32853;52.164;5.400;2023-04-30T11:18:01;102277.16;;;20.68;54.66
47104;BME280;32853;52.164;5.400;2023-04-30T11:20:28;102256.72;;;20.68;52.03
47104;BME280;32853;52.164;5.400;2023-04-30T11:23:12;102234.81;;;20.79;53.33
47104;BME280;32853;52.164;5.400;2023-04-30T11:25:46;102269.31;;;21.23;53.72
47104;BME280;32853;52.164;5.400;2023-04-30T11:28:24;102262.09;;;21.11;52.25
47104;BME280;32853;52.164;5.400;2023-04-30T11:30:59;102233.34;;;21.32;51.92
47104;BME280;32853;52.164;5.400;2023-04-30T11:33:26;102242.81;;;21.50;51.48
47104;BME280;32853;52.164;5.400;2023-04-30T11:35:54;102242.97;;;21.61;52.94
47104;BME280;32853;52.164;5.400;2023-04-30T11:38:38;102232.75;;;21.55;51.79
47104;BME280;32853;52.164;5.400;2023-04-30T11:41:06;102205.22;;;20.85;48.59
47104;BME280;32853;52.164;5.400;2023-04-30T11:43:33;102239.69;;;21.43;51.42
47104;BME280;32853;52.164;5.400;2023-04-30T11:46:03;102229.53;;;21.36;51.24
47104;BME280;32853;52.164;5.400;2023-04-30T11:48:33;102241.88;;;21.51;50.89
47104;BME280;32853;52.164;5.400;2023-04-30T11:51:20;102205.09;;;21.43;50.11
47104;BME280;32853;52.164;5.400;2023-04-30T11:53:50;102177.06;;;21.38;50.89
47104;BME280;32853;52.164;5.400;2023-04-30T11:56:23;102226.66;;;21.53;49.92
47104;BME280;32853;52.164;5.400;2023-04-30T11:58:51;102227.81;;;21.06;50.28
47104;BME280;32853;52.164;5.400;2023-04-30T12:01:17;102232.91;;;20.81;48.26
47104;BME280;32853;52.164;5.400;2023-04-30T12:03:44;102174.88;;;21.02;48.27
47104;BME280;32853;52.164;5.400;2023-04-30T12:06:11;102199.13;;;21.40;48.44
47104;BME280;32853;52.164;5.400;2023-04-30T12:08:44;102217.28;;;21.74;50.70
47104;BME280;32853;52.164;5.400;2023-04-30T12:11:23;102199.34;;;21.64;48.63
47104;BME280;32853;52.164;5.400;2023-04-30T12:14:07;102211.47;;;21.27;49.46
47104;BME280;32853;52.164;5.400;2023-04-30T12:16:48;102210.22;;;21.46;48.56
47104;BME280;32853;52.164;5.400;2023-04-30T12:19:15;102154.66;;;20.99;48.38
47104;BME280;32853;52.164;5.400;2023-04-30T12:21:41;102216.75;;;21.55;47.20
47104;BME280;32853;52.164;5.400;2023-04-30T12:24:16;102183.47;;;21.62;46.53
47104;BME280;32853;52.164;5.400;2023-04-30T12:26:47;102203.59;;;20.97;46.63
47104;BME280;32853;52.164;5.400;2023-04-30T12:29:16;102198.44;;;21.51;47.50
47104;BME280;32853;52.164;5.400;2023-04-30T12:31:42;102193.59;;;21.70;47.84
47104;BME280;32853;52.164;5.400;2023-04-30T12:34:10;102183.03;;;22.10;48.02
47104;BME280;32853;52.164;5.400;2023-04-30T12:36:36;102193.75;;;22.48;46.18
47104;BME280;32853;52.164;5.400;2023-04-30T12:39:13;102177.75;;;21.95;46.00
47104;BME280;32853;52.164;5.400;2023-04-30T12:41:43;102190.09;;;21.96;44.96
47104;BME280;32853;52.164;5.400;2023-04-30T12:46:45;102173.38;;;22.34;45.13
47104;BME280;32853;52.164;5.400;2023-04-30T12:49:26;102184.00;;;22.09;45.07
47104;BME280;32853;52.164;5.400;2023-04-30T12:52:12;102176.78;;;22.49;45.92
47104;BME280;32853;52.164;5.400;2023-04-30T12:54:39;102177.75;;;22.60;47.18
47104;BME280;32853;52.164;5.400;2023-04-30T12:57:28;102174.91;;;22.51;45.75
47104;BME280;32853;52.164;5.400;2023-04-30T13:00:03;102162.50;;;21.97;46.66
47104;BME280;32853;52.164;5.400;2023-04-30T13:02:32;102115.41;;;21.31;45.99
47104;BME280;32853;52.164;5.400;2023-04-30T13:04:58;102159.59;;;21.88;46.30
47104;BME280;32853;52.164;5.400;2023-04-30T13:07:25;102167.94;;;22.61;45.13
47104;BME280;32853;52.164;5.400;2023-04-30T13:09:51;102149.38;;;22.72;45.68
47104;BME280;32853;52.164;5.400;2023-04-30T13:12:18;102150.28;;;23.22;44.70